sensor_id;sensor_type;location;lat;lon;timestamp;pressure;altitude;pressure_sealevel;temperature;humidity
64713;BME280;51140;45.340;5.980;2022-12-29T00:01:43;99831.47;;;2.01;100.00
64713;BME280;51140;45.340;5.980;2022-12-29T00:04:11;99819.44;;;2.00;100.00
64713;BME280;51140;45.340;5.980;2022-12-29T00:06:37;99828.97;;;2.08;100.00
64713;BME280;51140;45.340;5.980;2022-12-29T00:09:02;99822.13;;;2.09;100.00
64713;BME280;51140;45.340;5.980;2022-12-29T00:11:28;99820.28;;;1.97;100.00
64713;BME280;51140;45.340;5.980;2022-12-29T00:13:54;99822.69;;;1.80;100.00
64713;BME280;51140;45.340;5.980;2022-12-29T00:16:42;99810.81;;;1.93;100.00
64713;BME280;51140;45.340;5.980;2022-12-29T00:19:08;99802.25;;;1.94;100.00
64713;BME280;51140;45.340;5.980;2022-12-29T00:21:53;99802.28;;;1.99;100.00
64713;BME280;51140;45.340;5.980;2022-12-29T00:24:38;99793.81;;;2.06;100.00
64713;BME280;51140;45.340;5.980;2022-12-29T00:27:22;99801.34;;;1.89;100.00
64713;BME280;51140;45.340;5.980;2022-12-29T00:30:16;99803.97;;;1.94;100.00
64713;BME280;51140;45.340;5.980;2022-12-29T00:33:00;99798.94;;;2.04;100.00
64713;BME280;51140;45.340;5.980;2022-12-29T00:35:51;99787.09;;;2.23;100.00
64713;BME280;51140;45.340;5.980;2022-12-29T00:38:18;99775.19;;;2.37;100.00
64713;BME280;51140;45.340;5.980;2022-12-29T00:41:02;99778.63;;;2.38;100.00
64713;BME280;51140;45.340;5.980;2022-12-29T00:43:45;99773.53;;;2.41;100.00
64713;BME280;51140;45.340;5.980;2022-12-29T00:46:29;99770.13;;;2.43;100.00
64713;BME280;51140;45.340;5.980;2022-12-29T00:48:55;99767.47;;;2.34;100.00
64713;BME280;51140;45.340;5.980;2022-12-29T00:51:39;99787.84;;;2.11;100.00
64713;BME280;51140;45.340;5.980;2022-12-29T00:54:05;99775.81;;;2.04;100.00
64713;BME280;51140;45.340;5.980;2022-12-29T00:56:30;99774.13;;;2.08;100.00
64713;BME280;51140;45.340;5.980;2022-12-29T00:59:00;99776.66;;;2.02;100.00
64713;BME280;51140;45.340;5.980;2022-12-29T01:01:25;99771.31;;;1.83;100.00
64713;BME280;51140;45.340;5.980;2022-12-29T01:03:50;99768.78;;;1.86;100.00
64713;BME280;51140;45.340;5.980;2022-12-29T01:06:16;99756.00;;;1.94;100.00
64713;BME280;51140;45.340;5.980;2022-12-29T01:08:41;99758.69;;;2.05;100.00
64713;BME280;51140;45.340;5.980;2022-12-29T01:11:09;99766.25;;;1.93;100.00
64713;BME280;51140;45.340;5.980;2022-12-29T01:13:35;99756.81;;;1.88;100.00
64713;BME280;51140;45.340;5.980;2022-12-29T01:16:03;99756.03;;;1.97;100.00
64713;BME280;51140;45.340;5.980;2022-12-29T01:18:29;99762.81;;;1.89;100.00
64713;BME280;51140;45.340;5.980;2022-12-29T01:21:02;99761.94;;;1.88;100.00
64713;BME280;51140;45.340;5.980;2022-12-29T01:23:28;99763.69;;;1.91;100.00
64713;BME280;51140;45.340;5.980;2022-12-29T01:25:54;99767.09;;;1.92;100.00
64713;BME280;51140;45.340;5.980;2022-12-29T01:28:20;99763.66;;;1.89;100.00
64713;BME280;51140;45.340;5.980;2022-12-29T01:30:45;99767.22;;;2.02;100.00
64713;BME280;51140;45.340;5.980;2022-12-29T01:33:10;99764.78;;;2.17;100.00
64713;BME280;51140;45.340;5.980;2022-12-29T01:35:36;99773.38;;;2.21;100.00
64713;BME280;51140;45.340;5.980;2022-12-29T01:38:01;99777.63;;;2.19;100.00
64713;BME280;51140;45.340;5.980;2022-12-29T01:40:27;99771.66;;;2.20;100.00
64713;BME280;51140;45.340;5.980;2022-12-29T01:42:53;99779.38;;;2.22;100.00
64713;BME280;51140;45.340;5.980;2022-12-29T01:45:19;99786.25;;;2.27;100.00
64713;BME280;51140;45.340;5.980;2022-12-29T01:47:48;99788.84;;;2.27;100.00
64713;BME280;51140;45.340;5.980;2022-12-29T01:50:23;99793.91;;;2.18;100.00
64713;BME280;51140;45.340;5.980;2022-12-29T01:55:37;99781.97;;;2.25;100.00
64713;BME280;51140;45.340;5.980;2022-12-29T01:58:04;99777.69;;;2.25;100.00
64713;BME280;51140;45.340;5.980;2022-12-29T02:00:32;99776.75;;;2.17;100.00
64713;BME280;51140;45.340;5.980;2022-12-29T02:02:57;99785.22;;;2.04;100.00
64713;BME280;51140;45.340;5.980;2022-12-29T02:05:24;99788.59;;;2.00;100.00
64713;BME280;51140;45.340;5.980;2022-12-29T02:07:52;99785.97;;;1.95;100.00
64713;BME280;51140;45.340;5.980;2022-12-29T02:10:24;99782.75;;;2.14;100.00
64713;BME280;51140;45.340;5.980;2022-12-29T02:12:51;99787.94;;;2.24;100.00
64713;BME280;51140;45.340;5.980;2022-12-29T02:15:20;99780.41;;;2.43;100.00
64713;BME280;51140;45.340;5.980;2022-12-29T02:18:18;99771.97;;;2.66;100.00
64713;BME280;51140;45.340;5.980;2022-12-29T02:34:56;99739.69;;;3.41;100.00
64713;BME280;51140;45.340;5.980;2022-12-29T02:37:30;99726.81;;;3.42;100.00
64713;BME280;51140;45.340;5.980;2022-12-29T02:45:14;99719.94;;;3.51;100.00
64713;BME280;51140;45.340;5.980;2022-12-29T02:50:23;99710.53;;;3.60;100.00
64713;BME280;51140;45.340;5.980;2022-12-29T02:52:59;99717.41;;;3.67;100.00
64713;BME280;51140;45.340;5.980;2022-12-29T02:55:25;99700.22;;;3.71;100.00
64713;BME280;51140;45.340;5.980;2022-12-29T02:58:17;99695.06;;;3.71;100.00
64713;BME280;51140;45.340;5.980;2022-12-29T03:06:56;99686.47;;;3.83;100.00
64713;BME280;51140;45.340;5.980;2022-12-29T03:12:03;99660.72;;;4.01;100.00
64713;BME280;51140;45.340;5.980;2022-12-29T03:17:57;99652.94;;;3.98;100.00
64713;BME280;51140;45.340;5.980;2022-12-29T03:20:36;99641.78;;;3.90;100.00
64713;BME280;51140;45.340;5.980;2022-12-29T03:23:03;99632.34;;;3.89;100.00
64713;BME280;51140;45.340;5.980;2022-12-29T03:25:33;99629.78;;;3.83;100.00
64713;BME280;51140;45.340;5.980;2022-12-29T03:28:10;99621.19;;;3.85;100.00
64713;BME280;51140;45.340;5.980;2022-12-29T03:30:38;99631.47;;;3.87;100.00
64713;BME280;51140;45.340;5.980;2022-12-29T03:33:09;99622.88;;;3.88;100.00
64713;BME280;51140;45.340;5.980;2022-12-29T03:35:37;99629.75;;;3.89;100.00
64713;BME280;51140;45.340;5.980;2022-12-29T03:38:18;99646.94;;;3.88;100.00
64713;BME280;51140;45.340;5.980;2022-12-29T03:40:47;99627.16;;;3.95;100.00
64713;BME280;51140;45.340;5.980;2022-12-29T03:43:14;99624.59;;;3.99;100.00
64713;BME280;51140;45.340;5.980;2022-12-29T03:45:40;99632.31;;;3.98;100.00
64713;BME280;51140;45.340;5.980;2022-12-29T03:48:05;99635.75;;;3.97;100.00
64713;BME280;51140;45.340;5.980;2022-12-29T03:50:30;99639.19;;;3.97;100.00
64713;BME280;51140;45.340;5.980;2022-12-29T03:52:56;99638.34;;;3.88;100.00
64713;BME280;51140;45.340;5.980;2022-12-29T03:55:21;99634.06;;;3.88;100.00
64713;BME280;51140;45.340;5.980;2022-12-29T03:57:47;99648.66;;;3.86;100.00
64713;BME280;51140;45.340;5.980;2022-12-29T04:00:13;99661.56;;;3.75;100.00
64713;BME280;51140;45.340;5.980;2022-12-29T04:02:39;99659.84;;;3.67;100.00
64713;BME280;51140;45.340;5.980;2022-12-29T04:05:05;99654.69;;;3.67;100.00
64713;BME280;51140;45.340;5.980;2022-12-29T04:07:30;99652.13;;;3.71;100.00
64713;BME280;51140;45.340;5.980;2022-12-29T04:09:56;99652.13;;;3.77;100.00
64713;BME280;51140;45.340;5.980;2022-12-29T04:12:21;99663.28;;;3.90;100.00
64713;BME280;51140;45.340;5.980;2022-12-29T04:14:46;99679.59;;;4.00;100.00
64713;BME280;51140;45.340;5.980;2022-12-29T04:17:12;99693.34;;;3.99;100.00
64713;BME280;51140;45.340;5.980;2022-12-29T04:19:37;99701.09;;;3.91;100.00
64713;BME280;51140;45.340;5.980;2022-12-29T04:22:03;99686.47;;;3.92;100.00
64713;BME280;51140;45.340;5.980;2022-12-29T04:24:28;99690.75;;;3.96;100.00
64713;BME280;51140;45.340;5.980;2022-12-29T04:26:53;99695.91;;;3.94;100.00
64713;BME280;51140;45.340;5.980;2022-12-29T04:29:19;99699.34;;;3.95;100.00
64713;BME280;51140;45.340;5.980;2022-12-29T04:31:44;99697.63;;;3.95;100.00
64713;BME280;51140;45.340;5.980;2022-12-29T04:34:10;99684.75;;;3.97;100.00
64713;BME280;51140;45.340;5.980;2022-12-29T04:36:35;99683.91;;;4.02;100.00
64713;BME280;51140;45.340;5.980;2022-12-29T04:39:00;99683.91;;;4.05;100.00
64713;BME280;51140;45.340;5.980;2022-12-29T04:41:26;99679.63;;;4.01;100.00
64713;BME280;51140;45.340;5.980;2022-12-29T04:43:52;99698.50;;;3.93;100.00
64713;BME280;51140;45.340;5.980;2022-12-29T04:46:17;99693.34;;;3.82;100.00
64713;BME280;51140;45.340;5.980;2022-12-29T04:48:43;99695.06;;;3.82;100.00
64713;BME280;51140;45.340;5.980;2022-12-29T04:51:09;99691.63;;;3.86;100.00
64713;BME280;51140;45.340;5.980;2022-12-29T04:53:34;99689.06;;;3.93;100.00
64713;BME280;51140;45.340;5.980;2022-12-29T04:55:59;99697.63;;;3.95;100.00
64713;BME280;51140;45.340;5.980;2022-12-29T04:58:25;99695.06;;;3.91;100.00
64713;BME280;51140;45.340;5.980;2022-12-29T05:00:51;99689.91;;;3.97;100.00
64713;BME280;51140;45.340;5.980;2022-12-29T05:03:16;99688.22;;;4.02;100.00
64713;BME280;51140;45.340;5.980;2022-12-29T05:05:42;99695.06;;;4.07;100.00
64713;BME280;51140;45.340;5.980;2022-12-29T05:08:07;99699.38;;;4.10;100.00
64713;BME280;51140;45.340;5.980;2022-12-29T05:10:33;99693.34;;;4.19;100.00
64713;BME280;51140;45.340;5.980;2022-12-29T05:12:58;99695.06;;;4.18;100.00
64713;BME280;51140;45.340;5.980;2022-12-29T05:15:24;99695.06;;;4.18;100.00
64713;BME280;51140;45.340;5.980;2022-12-29T05:17:49;99695.91;;;4.19;100.00
64713;BME280;51140;45.340;5.980;2022-12-29T05:20:15;99706.22;;;4.17;100.00
64713;BME280;51140;45.340;5.980;2022-12-29T05:22:40;99699.38;;;4.16;100.00
64713;BME280;51140;45.340;5.980;2022-12-29T05:25:06;99703.66;;;4.14;100.00
64713;BME280;51140;45.340;5.980;2022-12-29T05:27:31;99695.94;;;4.11;100.00
64713;BME280;51140;45.340;5.980;2022-12-29T05:29:57;99690.78;;;4.11;100.00
64713;BME280;51140;45.340;5.980;2022-12-29T05:32:22;99684.75;;;4.12;100.00
64713;BME280;51140;45.340;5.980;2022-12-29T05:34:48;99672.72;;;4.17;100.00
64713;BME280;51140;45.340;5.980;2022-12-29T05:37:13;99675.28;;;4.20;100.00
64713;BME280;51140;45.340;5.980;2022-12-29T05:39:38;99676.16;;;4.19;100.00
64713;BME280;51140;45.340;5.980;2022-12-29T05:42:04;99685.59;;;4.19;100.00
64713;BME280;51140;45.340;5.980;2022-12-29T05:44:29;99695.91;;;4.17;100.00
64713;BME280;51140;45.340;5.980;2022-12-29T05:46:55;99709.69;;;4.16;100.00
64713;BME280;51140;45.340;5.980;2022-12-29T05:49:20;99710.53;;;4.21;100.00
64713;BME280;51140;45.340;5.980;2022-12-29T05:51:45;99721.72;;;4.20;100.00
64713;BME280;51140;45.340;5.980;2022-12-29T05:54:11;99710.53;;;4.17;100.00
64713;BME280;51140;45.340;5.980;2022-12-29T05:56:36;99705.38;;;4.17;100.00
64713;BME280;51140;45.340;5.980;2022-12-29T05:59:02;99707.09;;;4.19;100.00
64713;BME280;51140;45.340;5.980;2022-12-29T06:01:27;99702.78;;;4.17;100.00
64713;BME280;51140;45.340;5.980;2022-12-29T06:03:52;99713.13;;;4.14;100.00
64713;BME280;51140;45.340;5.980;2022-12-29T06:06:18;99714.84;;;4.16;100.00
64713;BME280;51140;45.340;5.980;2022-12-29T06:08:43;99718.28;;;4.18;100.00
64713;BME280;51140;45.340;5.980;2022-12-29T06:11:09;99718.28;;;4.18;100.00
64713;BME280;51140;45.340;5.980;2022-12-29T06:13:34;99711.41;;;4.17;100.00
64713;BME280;51140;45.340;5.980;2022-12-29T06:16:00;99705.38;;;4.21;100.00
64713;BME280;51140;45.340;5.980;2022-12-29T06:18:26;99702.78;;;4.21;100.00
64713;BME280;51140;45.340;5.980;2022-12-29T06:20:51;99707.09;;;4.22;100.00
64713;BME280;51140;45.340;5.980;2022-12-29T06:23:17;99711.38;;;4.19;100.00
64713;BME280;51140;45.340;5.980;2022-12-29T06:25:43;99713.97;;;4.17;100.00
64713;BME280;51140;45.340;5.980;2022-12-29T06:28:09;99724.28;;;4.16;100.00
64713;BME280;51140;45.340;5.980;2022-12-29T06:30:36;99720.88;;;4.03;100.00
64713;BME280;51140;45.340;5.980;2022-12-29T06:33:01;99716.53;;;3.97;100.00
64713;BME280;51140;45.340;5.980;2022-12-29T06:35:27;99723.41;;;3.97;100.00
64713;BME280;51140;45.340;5.980;2022-12-29T06:37:52;99720.84;;;3.97;100.00
64713;BME280;51140;45.340;5.980;2022-12-29T06:40:18;99719.13;;;3.99;100.00
64713;BME280;51140;45.340;5.980;2022-12-29T06:42:43;99719.13;;;3.99;100.00
64713;BME280;51140;45.340;5.980;2022-12-29T06:45:09;99726.03;;;4.01;100.00
64713;BME280;51140;45.340;5.980;2022-12-29T06:47:35;99729.47;;;4.02;100.00
64713;BME280;51140;45.340;5.980;2022-12-29T06:50:01;99719.13;;;4.11;100.00
64713;BME280;51140;45.340;5.980;2022-12-29T06:52:27;99721.72;;;4.19;100.00
64713;BME280;51140;45.340;5.980;2022-12-29T06:54:53;99727.72;;;4.24;100.00
64713;BME280;51140;45.340;5.980;2022-12-29T06:57:19;99738.88;;;4.27;100.00
64713;BME280;51140;45.340;5.980;2022-12-29T06:59:44;99743.19;;;4.25;100.00
64713;BME280;51140;45.340;5.980;2022-12-29T07:02:10;99754.38;;;4.21;100.00
64713;BME280;51140;45.340;5.980;2022-12-29T07:04:36;99738.03;;;4.16;100.00
64713;BME280;51140;45.340;5.980;2022-12-29T07:07:01;99751.81;;;4.15;100.00
64713;BME280;51140;45.340;5.980;2022-12-29T07:09:27;99758.69;;;4.13;100.00
64713;BME280;51140;45.340;5.980;2022-12-29T07:11:52;99760.41;;;4.11;100.00
64713;BME280;51140;45.340;5.980;2022-12-29T07:14:17;99771.56;;;4.13;100.00
64713;BME280;51140;45.340;5.980;2022-12-29T07:16:43;99763.84;;;4.15;100.00
64713;BME280;51140;45.340;5.980;2022-12-29T07:19:08;99751.81;;;4.12;100.00
64713;BME280;51140;45.340;5.980;2022-12-29T07:21:34;99748.38;;;4.13;100.00
64713;BME280;51140;45.340;5.980;2022-12-29T07:23:59;99729.44;;;4.20;100.00
64713;BME280;51140;45.340;5.980;2022-12-29T07:26:24;99736.31;;;4.30;100.00
64713;BME280;51140;45.340;5.980;2022-12-29T07:28:50;99740.59;;;4.34;100.00
64713;BME280;51140;45.340;5.980;2022-12-29T07:31:18;99756.94;;;4.36;100.00
64713;BME280;51140;45.340;5.980;2022-12-29T07:33:44;99754.34;;;4.36;100.00
64713;BME280;51140;45.340;5.980;2022-12-29T07:36:10;99753.50;;;4.36;100.00
64713;BME280;51140;45.340;5.980;2022-12-29T07:38:36;99742.31;;;4.31;100.00
64713;BME280;51140;45.340;5.980;2022-12-29T07:41:01;99742.31;;;4.32;100.00
64713;BME280;51140;45.340;5.980;2022-12-29T07:43:27;99753.50;;;4.36;100.00
64713;BME280;51140;45.340;5.980;2022-12-29T07:45:53;99759.50;;;4.38;100.00
64713;BME280;51140;45.340;5.980;2022-12-29T07:48:18;99755.22;;;4.32;100.00
64713;BME280;51140;45.340;5.980;2022-12-29T07:50:44;99738.00;;;4.37;100.00
64713;BME280;51140;45.340;5.980;2022-12-29T07:53:09;99719.09;;;4.43;100.00
64713;BME280;51140;45.340;5.980;2022-12-29T07:55:34;99721.66;;;4.55;100.00
64713;BME280;51140;45.340;5.980;2022-12-29T07:58:00;99721.59;;;4.69;100.00
64713;BME280;51140;45.340;5.980;2022-12-29T08:00:26;99725.03;;;4.82;100.00
64713;BME280;51140;45.340;5.980;2022-12-29T08:02:51;99723.31;;;4.84;100.00
64713;BME280;51140;45.340;5.980;2022-12-29T08:05:17;99707.81;;;4.85;100.00
64713;BME280;51140;45.340;5.980;2022-12-29T08:07:43;99724.06;;;5.02;100.00
64713;BME280;51140;45.340;5.980;2022-12-29T08:10:09;99728.38;;;5.07;100.00
64713;BME280;51140;45.340;5.980;2022-12-29T08:12:36;99734.34;;;5.13;100.00
64713;BME280;51140;45.340;5.980;2022-12-29T08:15:02;99742.94;;;5.26;100.00
64713;BME280;51140;45.340;5.980;2022-12-29T08:17:28;99746.41;;;5.22;100.00
64713;BME280;51140;45.340;5.980;2022-12-29T08:19:53;99735.22;;;5.11;100.00
64713;BME280;51140;45.340;5.980;2022-12-29T08:22:19;99737.78;;;5.23;100.00
64713;BME280;51140;45.340;5.980;2022-12-29T08:24:44;99736.06;;;5.25;100.00
64713;BME280;51140;45.340;5.980;2022-12-29T08:27:09;99703.28;;;5.33;100.00
64713;BME280;51140;45.340;5.980;2022-12-29T08:29:35;99684.25;;;5.42;100.00
64713;BME280;51140;45.340;5.980;2022-12-29T08:32:00;99708.28;;;5.54;100.00
64713;BME280;51140;45.340;5.980;2022-12-29T08:34:26;99675.59;;;5.50;100.00
64713;BME280;51140;45.340;5.980;2022-12-29T08:36:51;99660.00;;;5.62;100.00
64713;BME280;51140;45.340;5.980;2022-12-29T08:39:16;99608.34;;;5.53;100.00
64713;BME280;51140;45.340;5.980;2022-12-29T08:41:42;99590.16;;;5.69;100.00
64713;BME280;51140;45.340;5.980;2022-12-29T08:44:07;99557.22;;;5.87;100.00
64713;BME280;51140;45.340;5.980;2022-12-29T08:46:33;99578.53;;;6.14;100.00
64713;BME280;51140;45.340;5.980;2022-12-29T08:48:58;99601.56;;;6.35;100.00
64713;BME280;51140;45.340;5.980;2022-12-29T08:51:24;99611.81;;;6.46;100.00
64713;BME280;51140;45.340;5.980;2022-12-29T08:53:49;99598.03;;;6.44;100.00
64713;BME280;51140;45.340;5.980;2022-12-29T08:56:15;99567.75;;;6.50;100.00
64713;BME280;51140;45.340;5.980;2022-12-29T08:58:41;99578.66;;;6.72;100.00
64713;BME280;51140;45.340;5.980;2022-12-29T09:01:06;99587.84;;;6.96;100.00
64713;BME280;51140;45.340;5.980;2022-12-29T09:03:32;99570.28;;;7.15;100.00
64713;BME280;51140;45.340;5.980;2022-12-29T09:05:57;99526.13;;;7.24;100.00
64713;BME280;51140;45.340;5.980;2022-12-29T09:08:23;99505.22;;;7.33;100.00
64713;BME280;51140;45.340;5.980;2022-12-29T09:10:49;99494.84;;;7.33;100.00
64713;BME280;51140;45.340;5.980;2022-12-29T09:13:16;99438.03;;;7.19;100.00
64713;BME280;51140;45.340;5.980;2022-12-29T09:15:41;99429.38;;;7.23;100.00
64713;BME280;51140;45.340;5.980;2022-12-29T09:18:08;99405.13;;;7.26;100.00
64713;BME280;51140;45.340;5.980;2022-12-29T09:20:34;99400.63;;;7.36;100.00
64713;BME280;51140;45.340;5.980;2022-12-29T09:23:00;99391.28;;;7.27;100.00
64713;BME280;51140;45.340;5.980;2022-12-29T09:25:26;99375.44;;;6.95;100.00
64713;BME280;51140;45.340;5.980;2022-12-29T09:27:51;99351.16;;;7.02;100.00
64713;BME280;51140;45.340;5.980;2022-12-29T09:30:21;99289.47;;;7.19;100.00
64713;BME280;51140;45.340;5.980;2022-12-29T09:32:48;99249.69;;;7.23;100.00
64713;BME280;51140;45.340;5.980;2022-12-29T09:35:14;99220.59;;;7.49;100.00
64713;BME280;51140;45.340;5.980;2022-12-29T09:37:41;99244.69;;;7.54;100.00
64713;BME280;51140;45.340;5.980;2022-12-29T09:40:07;99240.84;;;7.72;100.00
64713;BME280;51140;45.340;5.980;2022-12-29T09:42:45;99228.91;;;7.26;100.00
64713;BME280;51140;45.340;5.980;2022-12-29T09:45:27;99255.06;;;7.12;100.00
64713;BME280;51140;45.340;5.980;2022-12-29T09:47:54;99273.78;;;6.83;100.00
64713;BME280;51140;45.340;5.980;2022-12-29T09:50:24;99261.56;;;6.44;100.00
64713;BME280;51140;45.340;5.980;2022-12-29T09:53:15;99317.09;;;6.74;100.00
64713;BME280;51140;45.340;5.980;2022-12-29T09:55:49;99350.44;;;6.94;100.00
64713;BME280;51140;45.340;5.980;2022-12-29T09:58:28;99382.19;;;7.05;100.00
64713;BME280;51140;45.340;5.980;2022-12-29T10:01:05;99432.50;;;6.91;100.00
64713;BME280;51140;45.340;5.980;2022-12-29T10:14:33;99372.66;;;7.93;100.00
64713;BME280;51140;45.340;5.980;2022-12-29T10:17:27;99291.13;;;8.05;100.00
64713;BME280;51140;45.340;5.980;2022-12-29T10:25:16;99177.22;;;8.61;100.00
64713;BME280;51140;45.340;5.980;2022-12-29T10:27:43;99157.47;;;8.86;100.00
64713;BME280;51140;45.340;5.980;2022-12-29T10:30:12;99147.16;;;9.13;100.00
64713;BME280;51140;45.340;5.980;2022-12-29T10:35:25;99086.63;;;9.09;100.00
64713;BME280;51140;45.340;5.980;2022-12-29T10:38:12;99020.69;;;9.11;100.00
64713;BME280;51140;45.340;5.980;2022-12-29T10:43:43;98880.34;;;10.08;100.00
64713;BME280;51140;45.340;5.980;2022-12-29T10:46:14;98853.25;;;10.35;100.00
64713;BME280;51140;45.340;5.980;2022-12-29T10:48:41;98764.41;;;10.43;100.00
64713;BME280;51140;45.340;5.980;2022-12-29T10:51:10;98728.06;;;10.60;100.00
64713;BME280;51140;45.340;5.980;2022-12-29T10:53:46;98738.34;;;10.63;100.00
64713;BME280;51140;45.340;5.980;2022-12-29T10:56:27;98664.56;;;10.63;100.00
64713;BME280;51140;45.340;5.980;2022-12-29T10:58:55;98614.50;;;10.75;100.00
64713;BME280;51140;45.340;5.980;2022-12-29T11:01:25;98693.84;;;10.88;100.00
64713;BME280;51140;45.340;5.980;2022-12-29T11:06:46;98737.59;;;10.82;100.00
64713;BME280;51140;45.340;5.980;2022-12-29T11:09:16;98677.19;;;10.72;100.00
64713;BME280;51140;45.340;5.980;2022-12-29T11:11:44;98601.81;;;10.49;100.00
64713;BME280;51140;45.340;5.980;2022-12-29T11:14:25;98682.44;;;10.10;100.00
64713;BME280;51140;45.340;5.980;2022-12-29T11:17:03;98731.88;;;9.66;100.00
64713;BME280;51140;45.340;5.980;2022-12-29T11:19:31;98749.00;;;9.71;100.00
64713;BME280;51140;45.340;5.980;2022-12-29T11:22:23;98634.69;;;9.89;100.00
64713;BME280;51140;45.340;5.980;2022-12-29T11:24:51;98694.34;;;10.15;100.00
64713;BME280;51140;45.340;5.980;2022-12-29T11:27:25;98803.16;;;10.29;100.00
64713;BME280;51140;45.340;5.980;2022-12-29T11:29:53;98866.66;;;10.48;100.00
64713;BME280;51140;45.340;5.980;2022-12-29T11:32:23;98866.53;;;10.51;100.00
64713;BME280;51140;45.340;5.980;2022-12-29T11:34:50;98744.03;;;10.53;100.00
64713;BME280;51140;45.340;5.980;2022-12-29T11:37:38;98676.31;;;10.53;100.00
64713;BME280;51140;45.340;5.980;2022-12-29T11:42:36;98463.38;;;10.75;100.00
64713;BME280;51140;45.340;5.980;2022-12-29T11:47:44;98625.34;;;10.66;100.00
64713;BME280;51140;45.340;5.980;2022-12-29T11:50:18;98666.69;;;10.74;100.00
64713;BME280;51140;45.340;5.980;2022-12-29T11:52:44;98697.13;;;10.73;100.00
64713;BME280;51140;45.340;5.980;2022-12-29T11:55:19;98741.03;;;10.82;100.00
64713;BME280;51140;45.340;5.980;2022-12-29T11:57:46;98735.16;;;10.77;100.00
64713;BME280;51140;45.340;5.980;2022-12-29T12:00:17;98621.28;;;10.79;100.00
64713;BME280;51140;45.340;5.980;2022-12-29T12:02:50;98597.81;;;10.79;100.00
64713;BME280;51140;45.340;5.980;2022-12-29T12:05:27;98465.66;;;10.83;100.00
64713;BME280;51140;45.340;5.980;2022-12-29T12:08:02;98445.88;;;10.96;100.00
64713;BME280;51140;45.340;5.980;2022-12-29T12:11:11;98505.38;;;11.05;100.00
64713;BME280;51140;45.340;5.980;2022-12-29T12:13:43;98406.31;;;11.05;100.00
64713;BME280;51140;45.340;5.980;2022-12-29T12:16:16;98346.22;;;11.08;100.00
64713;BME280;51140;45.340;5.980;2022-12-29T12:18:53;98421.75;;;11.10;100.00
64713;BME280;51140;45.340;5.980;2022-12-29T12:21:36;98605.03;;;10.93;100.00
64713;BME280;51140;45.340;5.980;2022-12-29T12:27:20;98729.22;;;10.74;100.00
64713;BME280;51140;45.340;5.980;2022-12-29T12:30:30;98651.16;;;10.91;100.00
64713;BME280;51140;45.340;5.980;2022-12-29T12:35:12;98708.25;;;10.97;100.00
64713;BME280;51140;45.340;5.980;2022-12-29T12:49:05;98380.38;;;11.54;100.00
64713;BME280;51140;45.340;5.980;2022-12-29T13:07:51;98216.16;;;12.30;100.00
64713;BME280;51140;45.340;5.980;2022-12-29T13:18:32;98103.91;;;12.14;100.00
64713;BME280;51140;45.340;5.980;2022-12-29T13:21:15;98165.03;;;12.26;100.00
64713;BME280;51140;45.340;5.980;2022-12-29T13:23:49;98127.25;;;12.31;100.00
64713;BME280;51140;45.340;5.980;2022-12-29T13:34:39;98102.75;;;12.62;100.00
64713;BME280;51140;45.340;5.980;2022-12-29T13:37:12;98088.09;;;12.60;100.00
64713;BME280;51140;45.340;5.980;2022-12-29T13:39:43;98120.97;;;12.49;100.00
64713;BME280;51140;45.340;5.980;2022-12-29T13:42:11;98027.81;;;12.34;100.00
64713;BME280;51140;45.340;5.980;2022-12-29T13:44:48;97967.66;;;12.21;100.00
64713;BME280;51140;45.340;5.980;2022-12-29T13:48:00;98111.41;;;12.34;100.00
64713;BME280;51140;45.340;5.980;2022-12-29T13:50:29;98304.97;;;12.14;100.00
64713;BME280;51140;45.340;5.980;2022-12-29T13:55:55;98576.81;;;11.39;100.00
64713;BME280;51140;45.340;5.980;2022-12-29T14:04:23;98814.81;;;10.42;100.00
64713;BME280;51140;45.340;5.980;2022-12-29T14:07:01;98870.47;;;10.16;100.00
64713;BME280;51140;45.340;5.980;2022-12-29T14:12:30;98978.91;;;9.69;100.00
64713;BME280;51140;45.340;5.980;2022-12-29T14:15:03;98988.13;;;9.53;100.00
64713;BME280;51140;45.340;5.980;2022-12-29T14:17:29;99037.06;;;9.41;100.00
64713;BME280;51140;45.340;5.980;2022-12-29T14:19:54;99078.97;;;9.32;100.00
64713;BME280;51140;45.340;5.980;2022-12-29T14:22:25;99097.41;;;9.25;100.00
64713;BME280;51140;45.340;5.980;2022-12-29T14:24:50;99160.66;;;9.25;100.00
64713;BME280;51140;45.340;5.980;2022-12-29T14:27:42;99191.75;;;9.28;100.00
64713;BME280;51140;45.340;5.980;2022-12-29T14:30:01;99254.97;;;9.30;100.00
64713;BME280;51140;45.340;5.980;2022-12-29T14:34:58;98971.63;;;9.54;100.00
64713;BME280;51140;45.340;5.980;2022-12-29T14:37:32;98851.56;;;9.66;100.00
64713;BME280;51140;45.340;5.980;2022-12-29T14:40:17;98758.22;;;9.80;100.00
64713;BME280;51140;45.340;5.980;2022-12-29T14:42:44;98711.91;;;9.88;100.00
64713;BME280;51140;45.340;5.980;2022-12-29T14:47:41;98785.06;;;9.81;100.00
64713;BME280;51140;45.340;5.980;2022-12-29T14:50:13;98830.63;;;9.69;100.00
64713;BME280;51140;45.340;5.980;2022-12-29T14:57:58;98992.63;;;9.48;100.00
64713;BME280;51140;45.340;5.980;2022-12-29T15:00:29;99033.56;;;9.42;100.00
64713;BME280;51140;45.340;5.980;2022-12-29T15:05:45;99108.06;;;9.43;100.00
64713;BME280;51140;45.340;5.980;2022-12-29T15:08:18;99109.66;;;9.48;100.00
64713;BME280;51140;45.340;5.980;2022-12-29T15:10:58;99154.78;;;9.47;100.00
64713;BME280;51140;45.340;5.980;2022-12-29T15:13:34;99198.19;;;9.45;100.00
64713;BME280;51140;45.340;5.980;2022-12-29T15:16:00;99225.47;;;9.31;100.00
64713;BME280;51140;45.340;5.980;2022-12-29T15:18:29;99236.84;;;9.27;100.00
64713;BME280;51140;45.340;5.980;2022-12-29T15:21:00;99256.69;;;9.31;100.00
64713;BME280;51140;45.340;5.980;2022-12-29T15:23:27;99277.63;;;9.27;100.00
64713;BME280;51140;45.340;5.980;2022-12-29T15:28:21;99292.53;;;9.19;100.00
64713;BME280;51140;45.340;5.980;2022-12-29T15:33:49;99232.13;;;9.10;100.00
64713;BME280;51140;45.340;5.980;2022-12-29T15:36:26;99205.38;;;9.07;100.00